Terminal Aerodrome Forecast
Issued by NWS

Home | Current Version | Previous Version | Text Only | Print | Product List | Glossary On
Versions: 1 2 3 4 5 6 7 8 9 10 11 12 13 14 15
000
FTAK31 PANC 220257 AAB
TAFADQ
TAF AMD
PADQ 220257Z 2203/2224 12011KT 3SM -SN SCT015 OVC025
      TEMPO 2203/2206 1 1/2SM -SN SCT008 OVC015
     FM220600 14015G22KT 3SM -SN SCT008 OVC015
     FM221400 27010KT P6SM VCSH BKN035=

USA.gov is the U.S. government's official web portal to all federal, state and local government web resources and services.